createdAt,value
2023-02-27T00:02:25.345Z,-1.97
2023-02-27T00:05:29.927Z,-1.61
2023-02-27T00:08:34.540Z,-1.91
2023-02-27T00:11:39.134Z,-1.88
2023-02-27T00:14:43.602Z,-1.54
2023-02-27T00:17:48.199Z,-1.84
2023-02-27T00:20:54.631Z,-1.94
2023-02-27T00:23:59.171Z,-1.76
2023-02-27T00:27:03.761Z,-2.13
2023-02-27T00:30:11.790Z,-1.87
2023-02-27T00:33:16.768Z,-1.83
2023-02-27T00:36:21.465Z,-1.90
2023-02-27T00:39:25.972Z,-2.05
2023-02-27T00:42:32.034Z,-2.40
2023-02-27T00:45:36.710Z,-2.41
2023-02-27T00:48:41.202Z,-2.19
2023-02-27T00:51:46.681Z,-2.18
2023-02-27T00:54:51.204Z,-1.88
2023-02-27T00:57:55.824Z,-1.84
2023-02-27T01:01:00.579Z,-2.36
2023-02-27T01:04:06.512Z,-1.96
2023-02-27T01:07:11.097Z,-2.03
2023-02-27T01:10:17.588Z,-2.08
2023-02-27T01:13:22.239Z,-1.95
2023-02-27T01:16:26.830Z,-2.15
2023-02-27T01:19:31.829Z,-1.97
2023-02-27T01:22:36.361Z,-2.17
2023-02-27T01:25:40.948Z,-2.01
2023-02-27T01:28:45.512Z,-2.03
2023-02-27T01:31:50.824Z,-1.99
2023-02-27T01:34:55.493Z,-2.14
2023-02-27T01:38:00.067Z,-1.90
2023-02-27T01:41:07.149Z,-2.11
2023-02-27T01:44:13.457Z,-2.37
2023-02-27T01:47:18.168Z,-2.29
2023-02-27T01:50:23.720Z,-2.37
2023-02-27T01:53:31.867Z,-2.09
2023-02-27T01:56:36.858Z,-2.16
2023-02-27T01:59:42.322Z,-2.14
2023-02-27T02:03:04.554Z,-2.23
2023-02-27T02:06:10.155Z,-2.15
2023-02-27T02:09:17.414Z,-2.32
2023-02-27T02:12:26.686Z,-2.08
2023-02-27T02:15:37.081Z,-1.73
2023-02-27T02:18:53.837Z,-2.06
2023-02-27T02:22:16.021Z,-2.47
2023-02-27T02:25:57.998Z,-2.13
2023-02-27T02:29:25.729Z,-2.08
2023-02-27T02:32:54.502Z,-1.95
2023-02-27T02:36:17.547Z,-1.91
2023-02-27T02:40:04.776Z,-2.08
2023-02-27T02:43:25.822Z,-2.13
2023-02-27T02:46:50.913Z,-2.07
2023-02-27T02:50:09.386Z,-2.23
2023-02-27T02:53:36.045Z,-2.12
2023-02-27T02:56:43.289Z,-2.26
2023-02-27T03:00:02.408Z,-1.98
2023-02-27T03:03:22.383Z,-1.94
2023-02-27T03:06:38.000Z,-2.24
2023-02-27T03:09:57.040Z,-2.13
2023-02-27T03:13:46.283Z,-2.14
2023-02-27T03:16:54.793Z,-2.23
2023-02-27T03:20:06.334Z,-2.49
2023-02-27T03:23:16.101Z,-2.39
2023-02-27T03:26:24.877Z,-2.29
2023-02-27T03:29:52.678Z,-2.29
2023-02-27T03:33:10.561Z,-2.57
2023-02-27T03:36:37.945Z,-2.59
2023-02-27T03:39:51.670Z,-2.49
2023-02-27T03:43:19.123Z,-2.40
2023-02-27T03:46:28.430Z,-2.20
2023-02-27T03:49:33.014Z,-2.55
2023-02-27T03:52:39.816Z,-2.57
2023-02-27T03:55:47.417Z,-2.19
2023-02-27T03:58:52.488Z,-2.35
2023-02-27T04:01:59.044Z,-2.65
2023-02-27T04:05:04.015Z,-2.44
2023-02-27T04:08:28.333Z,-2.12
2023-02-27T04:12:04.000Z,-1.96
2023-02-27T04:15:23.604Z,-2.13
2023-02-27T04:18:51.117Z,-2.44
2023-02-27T04:22:12.205Z,-2.15
2023-02-27T04:25:39.429Z,-2.14
2023-02-27T04:29:05.918Z,-1.96
2023-02-27T04:32:17.531Z,-2.15
2023-02-27T04:35:33.005Z,-2.27
2023-02-27T04:38:47.640Z,-2.14
2023-02-27T04:42:00.621Z,-2.26
2023-02-27T04:45:07.692Z,-2.35
2023-02-27T04:48:21.042Z,-2.29
2023-02-27T04:51:32.794Z,-2.47
2023-02-27T04:54:38.367Z,-2.30
2023-02-27T04:57:49.591Z,-2.13
2023-02-27T05:01:03.785Z,-2.18
2023-02-27T05:04:13.391Z,-2.11
2023-02-27T05:07:23.423Z,-2.11
2023-02-27T05:10:38.457Z,-2.24
2023-02-27T05:13:51.637Z,-1.97
2023-02-27T05:17:17.821Z,-1.97
2023-02-27T05:20:23.333Z,-1.88
2023-02-27T05:24:11.457Z,-2.21
2023-02-27T05:27:35.046Z,-2.36
2023-02-27T05:31:08.239Z,-2.44
2023-02-27T05:34:22.566Z,-2.34
2023-02-27T05:37:33.877Z,-2.47
2023-02-27T05:40:39.366Z,-1.92
2023-02-27T05:43:49.048Z,-2.52
2023-02-27T05:47:00.630Z,-2.80
2023-02-27T05:50:19.516Z,-2.46
2023-02-27T05:53:28.270Z,-2.50
2023-02-27T05:56:36.451Z,-2.75
2023-02-27T05:59:48.002Z,-2.89
2023-02-27T06:02:53.218Z,-3.22
2023-02-27T06:05:59.781Z,-2.99
2023-02-27T06:09:04.322Z,-3.09
2023-02-27T06:12:08.893Z,-3.15
2023-02-27T06:15:13.899Z,-2.89
2023-02-27T06:18:18.859Z,-3.31
2023-02-27T06:21:23.427Z,-2.66
2023-02-27T06:24:27.964Z,-3.22
2023-02-27T06:27:33.837Z,-3.15
2023-02-27T06:30:38.915Z,-3.28
2023-02-27T06:33:43.442Z,-2.96
2023-02-27T06:36:48.624Z,-2.86
2023-02-27T06:39:54.466Z,-3.33
2023-02-27T06:42:59.137Z,-2.98
2023-02-27T06:46:04.044Z,-2.94
2023-02-27T06:49:08.576Z,-2.76
2023-02-27T06:52:13.154Z,-2.73
2023-02-27T06:55:22.539Z,-2.61
2023-02-27T06:58:28.483Z,-2.72
2023-02-27T07:01:33.172Z,-2.39
2023-02-27T07:04:37.833Z,-2.17
2023-02-27T07:07:42.357Z,-2.26
2023-02-27T07:10:48.882Z,-2.21
2023-02-27T07:13:53.476Z,-2.39
2023-02-27T07:17:03.344Z,-2.45
2023-02-27T07:20:10.478Z,-2.49
2023-02-27T07:23:15.241Z,-2.27
2023-02-27T07:26:19.828Z,-2.34
2023-02-27T07:29:24.455Z,-2.57
2023-02-27T07:32:30.466Z,-2.22
2023-02-27T07:35:35.126Z,-2.11
2023-02-27T07:38:39.627Z,-2.43
2023-02-27T07:41:44.149Z,-2.57
2023-02-27T07:44:54.599Z,-2.64
2023-02-27T07:47:59.086Z,-2.30
2023-02-27T07:51:03.621Z,-2.19
2023-02-27T07:54:08.098Z,-1.83
2023-02-27T07:57:12.711Z,-2.55
2023-02-27T08:00:19.076Z,-2.68
2023-02-27T08:03:23.637Z,-2.13
2023-02-27T08:06:28.453Z,-2.47
2023-02-27T08:09:33.269Z,-2.08
2023-02-27T08:12:38.147Z,-2.03
2023-02-27T08:15:42.683Z,-1.96
2023-02-27T08:18:47.743Z,-1.89
2023-02-27T08:21:52.259Z,-2.00
2023-02-27T08:24:56.815Z,-2.18
2023-02-27T08:28:01.279Z,-2.02
2023-02-27T08:31:07.605Z,-2.16
2023-02-27T08:34:13.223Z,-1.83
2023-02-27T08:37:17.713Z,-1.99
2023-02-27T08:40:22.281Z,-2.04
2023-02-27T08:43:26.819Z,-1.92
2023-02-27T08:46:32.245Z,-1.86
2023-02-27T08:49:36.915Z,-2.20
2023-02-27T08:52:41.405Z,-2.16
2023-02-27T08:55:50.993Z,-1.88
2023-02-27T08:58:55.587Z,-1.84
2023-02-27T09:02:00.181Z,-1.91
2023-02-27T09:05:05.038Z,-1.84
2023-02-27T09:08:09.695Z,-2.03
2023-02-27T09:11:15.351Z,-1.72
2023-02-27T09:14:20.047Z,-1.78
2023-02-27T09:17:24.578Z,-1.85
2023-02-27T09:20:31.561Z,-1.51
2023-02-27T09:23:37.260Z,-1.38
2023-02-27T09:26:46.056Z,-1.89
2023-02-27T09:29:55.821Z,-1.41
2023-02-27T09:33:00.480Z,-1.47
2023-02-27T09:36:06.839Z,-1.82
2023-02-27T09:39:11.367Z,-1.35
2023-02-27T09:42:22.386Z,-1.23
2023-02-27T09:45:30.020Z,-1.25
2023-02-27T09:48:54.522Z,-1.67
2023-02-27T09:51:59.187Z,-2.30
2023-02-27T09:55:15.204Z,-2.09
2023-02-27T09:58:57.904Z,-2.25
2023-02-27T10:02:22.938Z,-2.06
2023-02-27T10:05:40.369Z,-1.74
2023-02-27T10:08:56.575Z,-1.57
2023-02-27T10:12:23.982Z,-1.17
2023-02-27T10:15:38.132Z,-0.55
2023-02-27T10:19:06.728Z,-0.74
2023-02-27T10:22:12.302Z,-0.37
2023-02-27T10:25:30.835Z,-0.27
2023-02-27T10:28:35.927Z,-0.51
2023-02-27T10:31:41.854Z,-0.49
2023-02-27T10:35:10.890Z,-0.73
2023-02-27T10:38:29.176Z,-0.54
2023-02-27T10:41:36.163Z,-1.04
2023-02-27T10:44:40.787Z,-1.39
2023-02-27T10:47:46.250Z,-0.96
2023-02-27T10:50:52.051Z,-1.05
2023-02-27T10:54:23.581Z,-0.94
2023-02-27T10:57:40.545Z,-1.11
2023-02-27T11:01:06.970Z,-1.32
2023-02-27T11:04:12.918Z,-0.69
2023-02-27T11:07:21.167Z,-0.73
2023-02-27T11:10:28.281Z,-0.94
2023-02-27T11:13:41.822Z,-0.69
2023-02-27T11:17:13.308Z,-0.89
2023-02-27T11:20:29.952Z,-0.93
2023-02-27T11:23:34.515Z,-0.60
2023-02-27T11:26:41.299Z,-0.72
2023-02-27T11:30:23.815Z,0.01
2023-02-27T11:33:31.347Z,-0.23
2023-02-27T11:36:41.854Z,0.18
2023-02-27T11:39:52.911Z,-0.20
2023-02-27T11:43:03.705Z,-0.27
2023-02-27T11:46:32.133Z,0.49
2023-02-27T11:50:01.076Z,0.01
2023-02-27T11:53:40.731Z,0.01
2023-02-27T11:56:52.135Z,-0.19
2023-02-27T12:00:36.678Z,0.30
2023-02-27T12:03:50.615Z,1.02
2023-02-27T12:07:27.416Z,0.45
2023-02-27T12:10:39.179Z,0.48
2023-02-27T12:13:49.401Z,0.07
2023-02-27T12:16:59.044Z,0.21
2023-02-27T12:20:07.650Z,0.49
2023-02-27T12:23:25.886Z,0.65
2023-02-27T12:26:38.377Z,0.03
2023-02-27T12:29:51.090Z,-0.26
2023-02-27T12:33:32.317Z,0.32
2023-02-27T12:36:36.789Z,0.16
2023-02-27T12:39:44.533Z,-0.37
2023-02-27T12:43:04.120Z,-0.46
2023-02-27T12:46:11.697Z,-0.29
2023-02-27T12:49:42.909Z,-0.65
2023-02-27T12:53:36.115Z,-0.52
2023-02-27T12:57:05.981Z,-0.10
2023-02-27T13:00:25.064Z,-0.18
2023-02-27T13:03:45.225Z,-0.34
2023-02-27T13:06:51.286Z,-0.15
2023-02-27T13:10:03.356Z,-0.64
2023-02-27T13:13:09.783Z,-0.17
2023-02-27T13:16:41.217Z,0.10
2023-02-27T13:19:52.868Z,-0.12
2023-02-27T13:23:23.395Z,0.04
2023-02-27T13:26:38.415Z,0.15
2023-02-27T13:30:01.301Z,0.22
2023-02-27T13:33:30.392Z,0.16
2023-02-27T13:36:43.535Z,0.05
2023-02-27T13:39:52.536Z,-0.10
2023-02-27T13:43:01.802Z,-0.05
2023-02-27T13:46:26.318Z,-0.55
2023-02-27T13:49:42.727Z,-0.23
2023-02-27T13:52:48.316Z,0.08
2023-02-27T13:55:57.888Z,0.10
2023-02-27T13:59:28.834Z,-0.36
2023-02-27T14:02:46.587Z,-0.11
2023-02-27T14:06:02.037Z,-0.21
2023-02-27T14:09:15.046Z,-0.13
2023-02-27T14:12:45.409Z,-0.57
2023-02-27T14:15:55.652Z,-0.87
2023-02-27T14:19:01.534Z,-0.58
2023-02-27T14:22:11.782Z,-0.73
2023-02-27T14:25:51.400Z,-0.37
2023-02-27T14:28:57.061Z,-0.64
2023-02-27T14:32:07.956Z,-0.81
2023-02-27T14:35:16.203Z,-0.91
2023-02-27T14:38:21.229Z,-0.86
2023-02-27T14:41:48.183Z,-0.94
2023-02-27T14:44:53.778Z,-0.93
2023-02-27T14:47:58.710Z,-0.51
2023-02-27T14:51:03.269Z,-1.11
2023-02-27T14:54:21.174Z,-0.42
2023-02-27T14:57:28.941Z,-0.72
2023-02-27T15:00:43.496Z,-0.88
2023-02-27T15:03:52.704Z,-0.78
2023-02-27T15:06:58.780Z,-1.24
2023-02-27T15:10:08.250Z,-1.19
2023-02-27T15:13:27.238Z,-1.19
2023-02-27T15:16:34.620Z,-1.03
2023-02-27T15:19:47.218Z,-1.31
2023-02-27T15:22:51.876Z,-1.11
2023-02-27T15:25:59.083Z,-1.48
2023-02-27T15:29:05.520Z,-0.90
2023-02-27T15:32:38.432Z,-1.04
2023-02-27T15:35:45.513Z,-1.14
2023-02-27T15:39:16.370Z,-1.57
2023-02-27T15:42:25.328Z,-1.13
2023-02-27T15:45:34.791Z,-1.09
2023-02-27T15:48:39.586Z,-1.21
2023-02-27T15:51:46.399Z,-1.63
2023-02-27T15:55:03.625Z,-1.50
2023-02-27T15:58:37.507Z,-1.37
2023-02-27T16:01:42.245Z,-1.29
2023-02-27T16:04:47.441Z,-1.42
2023-02-27T16:07:53.249Z,-1.40
2023-02-27T16:10:58.087Z,-1.48
2023-02-27T16:14:04.112Z,-1.61
2023-02-27T16:17:31.957Z,-1.53
2023-02-27T16:20:55.668Z,-1.52
2023-02-27T16:24:21.322Z,-1.33
2023-02-27T16:27:27.245Z,-1.43
2023-02-27T16:30:31.801Z,-1.97
2023-02-27T16:33:38.050Z,-1.60
2023-02-27T16:36:52.269Z,-1.76
2023-02-27T16:39:56.881Z,-1.94
2023-02-27T16:43:02.396Z,-2.14
2023-02-27T16:46:08.192Z,-1.90
2023-02-27T16:49:22.333Z,-1.46
2023-02-27T16:52:26.972Z,-1.62
2023-02-27T16:55:33.647Z,-1.75
2023-02-27T16:58:38.865Z,-2.12
2023-02-27T17:01:46.604Z,-1.99
2023-02-27T17:04:52.153Z,-2.03
2023-02-27T17:07:56.771Z,-1.83
2023-02-27T17:11:02.038Z,-1.74
2023-02-27T17:14:06.552Z,-2.01
2023-02-27T17:17:11.470Z,-1.70
2023-02-27T17:20:17.858Z,-2.02
2023-02-27T17:23:23.161Z,-2.06
2023-02-27T17:26:28.745Z,-2.04
2023-02-27T17:29:33.495Z,-2.24
2023-02-27T17:32:38.067Z,-2.02
2023-02-27T17:35:42.578Z,-1.97
2023-02-27T17:38:48.742Z,-1.96
2023-02-27T17:41:54.302Z,-1.90
2023-02-27T17:44:58.812Z,-1.97
2023-02-27T17:48:03.360Z,-2.03
2023-02-27T17:51:11.614Z,-2.13
2023-02-27T17:54:16.241Z,-2.30
2023-02-27T17:57:20.902Z,-1.92
2023-02-27T18:00:25.469Z,-2.11
2023-02-27T18:03:30.065Z,-2.48
2023-02-27T18:06:34.633Z,-2.12
2023-02-27T18:09:39.443Z,-2.20
2023-02-27T18:12:44.014Z,-1.87
2023-02-27T18:15:50.043Z,-1.84
2023-02-27T18:18:54.659Z,-2.13
2023-02-27T18:21:59.168Z,-2.00
2023-02-27T18:25:03.896Z,-2.05
2023-02-27T18:28:08.786Z,-2.05
2023-02-27T18:31:31.571Z,-2.22
2023-02-27T18:34:36.233Z,-2.23
2023-02-27T18:37:40.750Z,-2.30
2023-02-27T18:40:46.480Z,-2.54
2023-02-27T18:43:51.103Z,-2.23
2023-02-27T18:46:55.617Z,-2.55
2023-02-27T18:50:00.294Z,-2.09
2023-02-27T18:53:04.864Z,-2.15
2023-02-27T18:56:13.881Z,-2.47
2023-02-27T18:59:18.418Z,-2.23
2023-02-27T19:02:22.916Z,-2.45
2023-02-27T19:05:27.531Z,-2.31
2023-02-27T19:08:32.100Z,-2.20
2023-02-27T19:11:36.976Z,-2.08
2023-02-27T19:14:41.516Z,-2.07
2023-02-27T19:17:46.730Z,-2.19
2023-02-27T19:20:51.269Z,-2.17
2023-02-27T19:23:55.943Z,-2.25
2023-02-27T19:27:00.862Z,-2.37
2023-02-27T19:30:09.219Z,-2.23
2023-02-27T19:33:13.735Z,-2.14
2023-02-27T19:36:20.896Z,-2.29
2023-02-27T19:39:25.499Z,-2.03
2023-02-27T19:42:30.005Z,-2.44
2023-02-27T19:45:34.508Z,-2.66
2023-02-27T19:48:39.507Z,-2.36
2023-02-27T19:51:44.058Z,-2.41
2023-02-27T19:54:48.627Z,-2.04
2023-02-27T19:57:53.102Z,-2.26
2023-02-27T20:00:57.820Z,-2.45
2023-02-27T20:04:03.375Z,-2.41
2023-02-27T20:07:08.090Z,-2.56
2023-02-27T20:10:12.774Z,-2.50
2023-02-27T20:13:17.394Z,-2.57
2023-02-27T20:16:28.034Z,-2.47
2023-02-27T20:19:33.002Z,-2.44
2023-02-27T20:22:38.115Z,-2.52
2023-02-27T20:25:42.668Z,-2.18
2023-02-27T20:28:48.827Z,-2.04
2023-02-27T20:31:57.257Z,-2.25
2023-02-27T20:35:01.796Z,-2.05
2023-02-27T20:38:06.763Z,-2.46
2023-02-27T20:41:18.291Z,-2.22
2023-02-27T20:44:22.801Z,-2.41
2023-02-27T20:47:28.058Z,-2.50
2023-02-27T20:50:33.882Z,-2.40
2023-02-27T20:53:40.596Z,-2.67
2023-02-27T20:56:45.346Z,-2.91
2023-02-27T20:59:51.398Z,-3.07
2023-02-27T21:02:55.977Z,-2.61
2023-02-27T21:06:00.531Z,-2.98
2023-02-27T21:09:06.299Z,-2.77
2023-02-27T21:12:11.679Z,-3.02
2023-02-27T21:15:16.203Z,-2.93
2023-02-27T21:18:20.758Z,-3.04
2023-02-27T21:21:28.795Z,-3.00
2023-02-27T21:24:33.806Z,-3.15
2023-02-27T21:27:38.438Z,-3.46
2023-02-27T21:30:44.434Z,-3.48
2023-02-27T21:33:50.228Z,-3.36
2023-02-27T21:36:55.697Z,-2.88
2023-02-27T21:40:01.748Z,-3.12
2023-02-27T21:43:06.236Z,-3.17
2023-02-27T21:46:12.653Z,-2.88
2023-02-27T21:49:24.605Z,-2.94
2023-02-27T21:52:31.577Z,-3.51
2023-02-27T21:55:36.056Z,-3.05
2023-02-27T21:58:40.587Z,-3.39
2023-02-27T22:01:47.396Z,-3.43
2023-02-27T22:04:52.061Z,-3.20
2023-02-27T22:07:56.596Z,-3.30
2023-02-27T22:11:01.474Z,-3.40
2023-02-27T22:14:06.890Z,-3.34
2023-02-27T22:17:11.348Z,-2.86
2023-02-27T22:20:15.911Z,-2.99
2023-02-27T22:23:20.540Z,-3.13
2023-02-27T22:26:28.153Z,-2.90
2023-02-27T22:29:32.765Z,-2.83
2023-02-27T22:32:40.580Z,-3.13
2023-02-27T22:35:45.305Z,-2.89
2023-02-27T22:38:50.482Z,-3.29
2023-02-27T22:41:56.842Z,-3.20
2023-02-27T22:45:01.537Z,-2.99
2023-02-27T22:48:06.436Z,-3.44
2023-02-27T22:51:14.835Z,-3.24
2023-02-27T22:54:21.942Z,-3.10
2023-02-27T22:57:26.430Z,-3.54
2023-02-27T23:00:31.028Z,-3.77
2023-02-27T23:03:36.582Z,-3.43
2023-02-27T23:06:41.951Z,-3.23
2023-02-27T23:09:49.458Z,-3.63
2023-02-27T23:12:53.911Z,-3.10
2023-02-27T23:15:59.621Z,-3.03
2023-02-27T23:19:04.798Z,-3.20
2023-02-27T23:22:09.298Z,-3.22
2023-02-27T23:25:13.915Z,-3.21
2023-02-27T23:28:21.376Z,-3.36
2023-02-27T23:31:26.108Z,-2.85
2023-02-27T23:34:43.765Z,-3.03
2023-02-27T23:37:55.630Z,-3.19
2023-02-27T23:41:06.600Z,-3.21
2023-02-27T23:44:29.393Z,-2.88
2023-02-27T23:47:41.441Z,-3.15
2023-02-27T23:50:45.950Z,-3.49
2023-02-27T23:53:50.955Z,-3.53
2023-02-27T23:56:55.556Z,-3.82
